Time;durP1;ratioP1;P1;durP2;ratioP2;P2;SDS_P1;SDS_P2;PMS_P1;PMS_P2;Temp;Humidity;BMP_temperature;BMP_pressure;BME280_temperature;BME280_humidity;BME280_pressure;Samples;Min_cycle;Max_cycle;Signal;HPM_P1;HPM_P2
2021/07/31 00:01:58;;;;;;;16.53;11.63;;;;;;;17.81;100.00;100011.50;3574110;40;20467;-54
2021/07/31 00:04:25;;;;;;;15.23;10.83;;;;;;;17.78;100.00;100005.41;3579732;40;20592;-55
2021/07/31 00:06:53;;;;;;;18.20;11.17;;;;;;;17.62;100.00;100013.25;3561794;40;20510;-57
2021/07/31 00:09:21;;;;;;;17.03;10.90;;;;;;;17.56;100.00;100021.06;3580070;40;20497;-53
2021/07/31 00:11:48;;;;;;;13.00;10.17;;;;;;;17.63;100.00;100007.16;3580201;40;20516;-57
2021/07/31 00:14:17;;;;;;;14.23;9.40;;;;;;;17.49;100.00;100014.97;3581386;40;20843;-56
2021/07/31 00:16:46;;;;;;;11.77;9.00;;;;;;;17.53;100.00;99995.84;3571282;40;20517;-59
2021/07/31 00:19:14;;;;;;;11.80;9.00;;;;;;;17.49;100.00;99995.84;3580342;40;20531;-56
2021/07/31 00:21:42;;;;;;;12.37;7.90;;;;;;;17.50;100.00;99995.88;3580140;40;20511;-56
2021/07/31 00:24:09;;;;;;;12.80;8.80;;;;;;;17.50;100.00;99993.25;3578145;40;20468;-55
2021/07/31 00:26:37;;;;;;;16.13;8.60;;;;;;;17.58;100.00;99980.19;3569390;40;20713;-54
2021/07/31 00:29:05;;;;;;;12.80;8.87;;;;;;;17.45;100.00;99983.66;3580218;40;20480;-57
2021/07/31 00:31:33;;;;;;;10.63;8.17;;;;;;;17.52;100.00;99982.81;3579528;40;20496;-56
2021/07/31 00:34:01;;;;;;;12.97;9.07;;;;;;;17.40;100.00;99978.47;3579760;40;20495;-56
2021/07/31 00:36:29;;;;;;;9.90;7.30;;;;;;;17.38;100.00;99991.47;3580133;40;20511;-54
2021/07/31 00:38:56;;;;;;;116.33;28.00;;;;;;;17.33;100.00;99982.78;3578304;40;20467;-53
2021/07/31 00:41:24;;;;;;;34.50;13.87;;;;;;;17.42;100.00;99976.72;3580563;40;20532;-61
2021/07/31 00:43:52;;;;;;;14.70;9.07;;;;;;;17.32;100.00;99988.88;3578670;40;20469;-54
2021/07/31 00:46:19;;;;;;;16.57;9.60;;;;;;;17.36;100.00;99988.00;3580115;40;20715;-54
2021/07/31 00:48:49;;;;;;;23.90;10.33;;;;;;;17.32;100.00;99995.84;3580545;40;20456;-54
2021/07/31 00:51:18;;;;;;;13.57;7.57;;;;;;;17.28;100.00;99992.34;3578787;40;20833;-57
2021/07/31 00:53:46;;;;;;;18.73;10.70;;;;;;;17.30;100.00;99998.44;3561699;40;20467;-57
2021/07/31 00:56:14;;;;;;;13.57;9.50;;;;;;;17.34;100.00;99991.47;3578834;40;20847;-56
2021/07/31 00:58:42;;;;;;;11.63;8.63;;;;;;;17.34;100.00;100000.16;3589873;39;20459;-55
2021/07/31 01:01:10;;;;;;;13.80;9.27;;;;;;;17.25;100.00;99994.94;3591800;40;20500;-56
2021/07/31 01:03:40;;;;;;;16.40;9.80;;;;;;;17.35;100.00;99998.44;3575076;39;20474;-55
2021/07/31 01:06:09;;;;;;;12.40;8.57;;;;;;;17.24;100.00;99993.19;3579672;40;20504;-55
2021/07/31 01:08:36;;;;;;;11.80;8.80;;;;;;;17.27;100.00;99998.41;3576979;40;20479;-52
2021/07/31 01:11:04;;;;;;;31.43;14.40;;;;;;;17.28;100.00;99988.00;3575215;40;20510;-56
2021/07/31 01:13:32;;;;;;;50.63;16.23;;;;;;;17.23;100.00;99988.88;3551605;40;20467;-55
2021/07/31 01:16:01;;;;;;;12.07;8.10;;;;;;;17.21;100.00;99993.19;3552080;40;20496;-54
2021/07/31 01:18:29;;;;;;;12.90;7.60;;;;;;;17.20;100.00;99991.44;3560541;40;20509;-55
2021/07/31 01:20:57;;;;;;;10.53;7.27;;;;;;;17.20;100.00;99981.91;3571502;40;20531;-57
2021/07/31 01:23:26;;;;;;;12.60;7.87;;;;;;;17.16;100.00;99979.28;3569027;40;20523;-53
2021/07/31 01:25:54;;;;;;;21.53;10.03;;;;;;;17.10;100.00;99983.63;3569625;40;20504;-54
2021/07/31 01:28:21;;;;;;;21.17;11.07;;;;;;;17.08;100.00;99981.88;3549975;40;20549;-55
2021/07/31 01:30:49;;;;;;;16.43;9.37;;;;;;;16.98;100.00;99980.94;3570408;40;20508;-55
2021/07/31 01:33:17;;;;;;;19.20;8.70;;;;;;;17.03;100.00;99978.38;3577326;40;20471;-53
2021/07/31 01:35:44;;;;;;;9.13;7.20;;;;;;;17.04;100.00;99986.22;3570653;40;20725;-53
2021/07/31 01:38:12;;;;;;;10.50;7.13;;;;;;;16.95;100.00;99983.53;3581503;40;20513;-57
2021/07/31 01:40:41;;;;;;;11.13;8.53;;;;;;;16.86;100.00;99979.16;3564336;40;20506;-56
2021/07/31 01:43:09;;;;;;;15.70;8.73;;;;;;;16.85;100.00;99975.69;3575865;40;20518;-54
2021/07/31 01:45:37;;;;;;;14.80;9.53;;;;;;;16.87;100.00;99980.91;3563238;40;20483;-53
2021/07/31 01:48:05;;;;;;;23.63;15.83;;;;;;;16.70;100.00;99989.53;3579598;39;20514;-54
2021/07/31 01:50:33;;;;;;;20.23;13.63;;;;;;;16.75;100.00;99999.97;3581028;40;20864;-57
2021/07/31 01:53:00;;;;;;;15.40;10.67;;;;;;;16.66;100.00;99990.38;3581675;40;20846;-57
2021/07/31 01:55:28;;;;;;;28.37;16.53;;;;;;;16.65;100.00;99993.84;3581447;40;20519;-52
2021/07/31 01:57:57;;;;;;;15.00;11.47;;;;;;;16.60;100.00;100000.75;3580612;40;20536;-54
2021/07/31 02:00:24;;;;;;;19.70;13.30;;;;;;;16.57;100.00;100006.81;3581293;40;20742;-54
2021/07/31 02:02:52;;;;;;;20.53;14.60;;;;;;;16.58;100.00;99999.88;3581598;40;20492;-57
2021/07/31 02:05:20;;;;;;;20.07;13.10;;;;;;;16.59;100.00;99997.28;3581352;40;20841;-52
2021/07/31 02:07:47;;;;;;;18.33;12.73;;;;;;;16.63;100.00;99999.91;3578419;40;20479;-55
2021/07/31 02:10:15;;;;;;;15.80;11.50;;;;;;;16.53;100.00;100001.59;3580796;40;20549;-55
2021/07/31 02:12:42;;;;;;;16.70;10.57;;;;;;;16.47;100.00;99999.84;3581787;40;21617;-57
2021/07/31 02:15:12;;;;;;;17.20;10.23;;;;;;;16.54;100.00;99991.19;3579576;40;20667;-54
2021/07/31 02:17:39;;;;;;;15.20;8.97;;;;;;;16.48;100.00;99991.16;3579370;40;20468;-57
2021/07/31 02:20:08;;;;;;;11.10;7.60;;;;;;;16.42;100.00;99976.34;3581243;40;20510;-56
2021/07/31 02:22:36;;;;;;;15.53;8.77;;;;;;;16.47;100.00;99974.66;3567632;40;20787;-56
2021/07/31 02:25:04;;;;;;;11.17;8.13;;;;;;;16.43;100.00;99972.91;3581040;40;20526;-57
2021/07/31 02:27:31;;;;;;;24.03;11.40;;;;;;;16.46;100.00;99966.88;3572041;40;20503;-55
2021/07/31 02:30:00;;;;;;;13.30;7.30;;;;;;;16.51;100.00;99954.72;3580931;40;20513;-54
2021/07/31 02:32:29;;;;;;;49.73;23.73;;;;;;;16.48;100.00;99954.72;3572336;40;20468;-54
2021/07/31 02:34:56;;;;;;;30.63;11.37;;;;;;;16.54;100.00;99959.94;3586169;40;20503;-53
2021/07/31 02:37:24;;;;;;;41.60;17.27;;;;;;;16.50;100.00;99952.13;3574195;40;20509;-57
2021/07/31 02:39:51;;;;;;;24.53;13.13;;;;;;;16.39;100.00;99952.03;3585732;40;20527;-57
2021/07/31 02:42:19;;;;;;;10.80;6.20;;;;;;;16.41;100.00;99939.94;3584468;40;20850;-57
2021/07/31 02:44:46;;;;;;;9.50;5.70;;;;;;;16.37;100.00;99946.84;3586439;40;20499;-55
2021/07/31 02:47:14;;;;;;;11.93;4.80;;;;;;;16.30;100.00;99940.75;3576703;40;20476;-52
2021/07/31 02:49:43;;;;;;;10.70;4.00;;;;;;;16.26;100.00;99933.75;3589533;40;20819;-57
2021/07/31 02:52:11;;;;;;;9.30;5.13;;;;;;;16.26;100.00;99938.13;3587251;40;20481;-56
2021/07/31 02:54:38;;;;;;;8.03;4.87;;;;;;;16.32;100.00;99938.16;3592267;40;20539;-55
2021/07/31 02:57:06;;;;;;;11.23;4.37;;;;;;;16.38;100.00;99924.28;3587346;39;20490;-55
2021/07/31 02:59:34;;;;;;;13.10;5.03;;;;;;;16.38;100.00;99925.16;3591319;40;20497;-53
2021/07/31 03:02:01;;;;;;;10.10;6.17;;;;;;;16.36;100.00;99924.28;3586131;39;20477;-55
2021/07/31 03:04:29;;;;;;;8.07;4.87;;;;;;;16.31;100.00;99926.84;3591134;40;20536;-56
2021/07/31 03:06:58;;;;;;;10.00;4.60;;;;;;;16.30;100.00;99919.91;3589152;39;20455;-54
2021/07/31 03:09:25;;;;;;;8.70;4.53;;;;;;;16.36;100.00;99913.00;3591480;40;20514;-55
2021/07/31 03:11:53;;;;;;;5.20;3.67;;;;;;;16.30;100.00;99925.13;3590195;39;20529;-53
2021/07/31 03:14:20;;;;;;;11.17;4.53;;;;;;;16.30;100.00;99925.13;3591258;40;20502;-57
2021/07/31 03:16:48;;;;;;;9.53;4.50;;;;;;;16.34;100.00;99915.59;3589015;39;20504;-55
2021/07/31 03:19:18;;;;;;;6.07;3.80;;;;;;;16.38;100.00;99912.16;3590922;40;20501;-55
2021/07/31 03:21:46;;;;;;;7.13;3.53;;;;;;;16.15;100.00;99899.88;3574304;39;20498;-59
2021/07/31 03:24:15;;;;;;;6.43;4.00;;;;;;;16.12;100.00;99905.09;3590070;40;20850;-52
2021/07/31 03:26:43;;;;;;;11.87;4.20;;;;;;;16.08;100.00;99907.66;3588095;39;20506;-54
2021/07/31 03:29:10;;;;;;;10.57;4.60;;;;;;;16.03;100.00;99905.03;3590918;40;20514;-56
2021/07/31 03:31:38;;;;;;;7.87;4.70;;;;;;;16.11;100.00;99910.28;3589758;39;20505;-55
2021/07/31 03:34:05;;;;;;;12.67;4.17;;;;;;;16.11;100.00;99910.28;3590049;40;20576;-56
2021/07/31 03:36:35;;;;;;;6.33;4.20;;;;;;;16.02;100.00;99906.78;3589725;39;20500;-53
2021/07/31 03:39:04;;;;;;;9.53;4.40;;;;;;;15.97;100.00;99910.19;3590641;40;20515;-52
2021/07/31 03:41:33;;;;;;;9.43;4.20;;;;;;;15.95;100.00;99904.13;3590285;39;20517;-57
2021/07/31 03:44:01;;;;;;;6.87;4.10;;;;;;;16.00;100.00;99895.47;3590572;40;20529;-57
2021/07/31 03:46:28;;;;;;;10.40;4.47;;;;;;;16.10;100.00;99900.75;3589267;40;20508;-53
2021/07/31 03:48:56;;;;;;;6.00;3.70;;;;;;;16.08;100.00;99892.03;3580377;40;20448;-57
2021/07/31 03:51:23;;;;;;;5.97;3.87;;;;;;;16.17;100.00;99892.09;3581059;40;20506;-56
2021/07/31 03:53:51;;;;;;;7.20;3.47;;;;;;;16.18;100.00;99893.84;3588627;40;20839;-57
2021/07/31 03:56:19;;;;;;;5.33;3.10;;;;;;;16.15;100.00;99891.22;3590986;40;20506;-56
2021/07/31 03:58:47;;;;;;;7.47;3.40;;;;;;;16.21;100.00;99888.66;3589686;39;20479;-54
2021/07/31 04:01:21;;;;;;;8.77;3.40;;;;;;;16.27;100.00;99878.28;3588495;40;20538;-55
2021/07/31 04:03:49;;;;;;;6.60;3.37;;;;;;;16.31;100.00;99887.81;3577932;40;20479;-58
2021/07/31 04:06:17;;;;;;;6.40;3.30;;;;;;;16.38;100.00;99880.91;3580763;40;20543;-54
2021/07/31 04:08:44;;;;;;;7.17;3.40;;;;;;;16.36;100.00;99876.56;3583844;40;20543;-54
2021/07/31 04:11:12;;;;;;;4.60;2.50;;;;;;;16.33;100.00;99870.50;3580529;40;20503;-53
2021/07/31 04:13:39;;;;;;;11.17;3.23;;;;;;;16.41;100.00;99877.47;3588161;40;20466;-53
2021/07/31 04:16:08;;;;;;;6.37;2.80;;;;;;;16.51;100.00;99878.34;3590622;40;20499;-54
2021/07/31 04:18:36;;;;;;;10.60;3.30;;;;;;;16.53;100.00;99880.09;3591650;39;20454;-52
2021/07/31 04:21:06;;;;;;;6.40;3.13;;;;;;;16.54;100.00;99875.75;3590785;40;20822;-53
2021/07/31 04:23:34;;;;;;;7.67;2.87;;;;;;;16.49;100.00;99873.13;3573693;40;20832;-55
2021/07/31 04:26:10;;;;;;;7.60;3.83;;;;;;;16.62;100.00;99870.56;3590444;40;20495;-52
2021/07/31 04:28:37;;;;;;;6.57;3.03;;;;;;;16.61;100.00;99874.91;3588940;39;20462;-53
2021/07/31 04:31:10;;;;;;;7.80;3.43;;;;;;;16.56;100.00;99868.84;3590293;40;20487;-53
2021/07/31 04:33:44;;;;;;;8.53;2.90;;;;;;;16.48;100.00;99866.19;3588359;39;20470;-55
2021/07/31 04:36:12;;;;;;;7.57;2.50;;;;;;;16.47;100.00;99867.06;3571547;40;20841;-56
2021/07/31 04:38:40;;;;;;;7.77;3.97;;;;;;;16.51;100.00;99873.16;3588862;39;20502;-55
2021/07/31 04:41:07;;;;;;;6.83;3.30;;;;;;;16.53;100.00;99864.47;3591136;40;20503;-54
2021/07/31 04:43:35;;;;;;;8.67;3.50;;;;;;;16.48;100.00;99871.41;3596429;39;20510;-56
2021/07/31 04:46:03;;;;;;;6.77;3.80;;;;;;;16.63;100.00;99859.28;3590289;40;20498;-54
2021/07/31 04:48:32;;;;;;;6.17;3.23;;;;;;;16.64;100.00;99855.81;3588885;39;20474;-56
2021/07/31 04:51:00;;;;;;;11.77;4.00;;;;;;;16.50;100.00;99856.66;3589913;40;20514;-56
2021/07/31 04:53:28;;;;;;;7.20;3.13;;;;;;;16.43;100.00;99857.50;3589064;39;20471;-56
2021/07/31 04:55:57;;;;;;;7.40;3.00;;;;;;;16.56;100.00;99864.47;3590286;40;20506;-55
2021/07/31 04:58:25;;;;;;;8.80;4.27;;;;;;;16.65;100.00;99848.00;3588891;39;20471;-56
2021/07/31 05:00:54;;;;;;;7.83;3.60;;;;;;;16.42;100.00;99858.38;3590690;40;20835;-53
2021/07/31 05:03:23;;;;;;;10.13;3.77;;;;;;;16.67;100.00;99843.66;3586824;39;20457;-53
2021/07/31 05:05:52;;;;;;;5.77;2.90;;;;;;;16.67;100.00;99851.47;3590161;40;20531;-55
2021/07/31 05:08:19;;;;;;;7.00;2.90;;;;;;;16.59;100.00;99856.69;3589673;39;20655;-55
2021/07/31 05:10:48;;;;;;;8.10;2.97;;;;;;;16.68;100.00;99852.34;3590252;40;20495;-55
2021/07/31 05:13:16;;;;;;;5.47;2.70;;;;;;;16.69;100.00;99854.09;3588357;39;20483;-56
2021/07/31 05:15:44;;;;;;;5.10;3.10;;;;;;;16.72;100.00;99848.91;3590406;40;20497;-58
2021/07/31 05:18:12;;;;;;;4.70;3.03;;;;;;;16.55;100.00;99849.72;3588965;39;20489;-58
2021/07/31 05:20:42;;;;;;;7.17;3.00;;;;;;;16.63;100.00;99851.47;3590609;40;20525;-55
2021/07/31 05:23:11;;;;;;;8.20;3.23;;;;;;;16.69;100.00;99851.50;3589191;39;20469;-54
2021/07/31 05:25:39;;;;;;;6.43;3.10;;;;;;;16.65;100.00;99847.13;3590519;40;20733;-56
2021/07/31 05:28:06;;;;;;;6.10;3.10;;;;;;;16.74;100.00;99831.53;3588556;39;20679;-55
2021/07/31 05:30:34;;;;;;;7.10;3.20;;;;;;;16.82;100.00;99828.94;3590132;40;20522;-57
2021/07/31 05:33:04;;;;;;;9.77;3.80;;;;;;;16.72;100.00;99835.88;3587213;39;20526;-55
2021/07/31 05:35:31;;;;;;;10.17;3.10;;;;;;;16.76;100.00;99835.00;3590217;40;20656;-56
2021/07/31 05:37:59;;;;;;;8.43;3.13;;;;;;;16.86;100.00;99828.06;3587039;39;20478;-52
2021/07/31 05:40:28;;;;;;;5.37;2.10;;;;;;;16.71;100.00;99831.50;3588304;40;20517;-55
2021/07/31 05:42:55;;;;;;;9.03;2.57;;;;;;;16.56;100.00;99833.22;3586932;39;20470;-56
2021/07/31 05:45:23;;;;;;;8.53;2.87;;;;;;;16.60;100.00;99841.91;3590446;40;20690;-58
2021/07/31 05:47:52;;;;;;;6.50;2.50;;;;;;;16.63;100.00;99828.03;3588322;39;20486;-57
2021/07/31 05:50:19;;;;;;;8.30;2.90;;;;;;;16.81;100.00;99827.22;3591761;40;20506;-57
2021/07/31 05:52:47;;;;;;;4.90;2.17;;;;;;;16.73;100.00;99837.63;3589954;39;20645;-54
2021/07/31 05:55:15;;;;;;;7.60;3.20;;;;;;;16.75;100.00;99822.84;3591712;40;20503;-58
2021/07/31 05:57:43;;;;;;;11.13;2.80;;;;;;;16.78;100.00;99833.28;3589263;39;20482;-57
2021/07/31 06:00:12;;;;;;;5.20;2.80;;;;;;;16.91;100.00;99822.88;3591429;40;20836;-56
2021/07/31 06:02:40;;;;;;;5.23;1.90;;;;;;;16.83;100.00;99826.31;3594437;39;20514;-55
2021/07/31 06:05:11;;;;;;;5.40;2.60;;;;;;;16.73;100.00;99822.00;3591128;40;20486;-57
2021/07/31 06:07:38;;;;;;;7.77;2.80;;;;;;;16.69;100.00;99844.56;3591512;40;20515;-52
2021/07/31 06:10:07;;;;;;;5.97;2.37;;;;;;;16.77;100.00;99828.91;3591827;40;20498;-56
2021/07/31 06:12:35;;;;;;;4.83;2.70;;;;;;;16.76;100.00;99832.41;3590136;39;20471;-55
2021/07/31 06:15:05;;;;;;;5.30;2.10;;;;;;;16.79;100.00;99827.22;3591546;40;20495;-54
2021/07/31 06:17:32;;;;;;;4.60;2.20;;;;;;;16.55;100.00;99831.50;3590698;39;20471;-57
2021/07/31 06:20:00;;;;;;;7.83;2.67;;;;;;;16.67;100.00;99825.44;3591879;40;20517;-54
2021/07/31 06:22:28;;;;;;;13.57;2.87;;;;;;;16.72;100.00;99823.72;3590545;39;20474;-57
2021/07/31 06:24:56;;;;;;;6.47;3.20;;;;;;;16.80;100.00;99822.84;3591332;40;20703;-57
2021/07/31 06:27:23;;;;;;;5.33;2.60;;;;;;;16.81;100.00;99827.22;3594234;39;20502;-56
2021/07/31 06:29:51;;;;;;;5.30;2.70;;;;;;;16.80;100.00;99817.66;3591570;40;20510;-53
2021/07/31 06:32:20;;;;;;;4.00;2.30;;;;;;;16.78;100.00;99819.38;3589686;39;20487;-56
2021/07/31 06:34:47;;;;;;;5.33;2.33;;;;;;;16.87;100.00;99822.03;3591460;40;20604;-54
2021/07/31 06:37:15;;;;;;;9.30;2.40;;;;;;;16.86;100.00;99817.66;3590742;39;20801;-54
2021/07/31 06:39:42;;;;;;;8.27;2.90;;;;;;;16.97;100.00;99809.88;3591478;40;20514;-53
2021/07/31 06:42:10;;;;;;;6.70;2.43;;;;;;;16.85;100.00;99814.19;3589865;39;20452;-56
2021/07/31 06:44:38;;;;;;;8.83;2.80;;;;;;;16.80;100.00;99809.81;3591506;40;20530;-56
2021/07/31 06:47:05;;;;;;;6.20;2.70;;;;;;;16.90;100.00;99810.69;3589402;39;20514;-57
2021/07/31 06:49:34;;;;;;;6.50;2.83;;;;;;;16.93;100.00;99815.94;3591515;40;20508;-56
2021/07/31 06:52:02;;;;;;;7.70;2.63;;;;;;;16.94;100.00;99810.72;3590213;39;20782;-55
2021/07/31 06:54:30;;;;;;;7.80;2.30;;;;;;;16.92;100.00;99809.84;3591618;40;20514;-57
2021/07/31 06:56:57;;;;;;;16.50;2.70;;;;;;;16.94;100.00;99812.44;3589354;39;20462;-55
2021/07/31 06:59:25;;;;;;;6.40;2.47;;;;;;;16.99;99.70;99818.53;3591393;40;20521;-57
2021/07/31 07:01:53;;;;;;;5.13;2.40;;;;;;;17.03;98.77;99816.84;3584722;39;20472;-54
2021/07/31 07:04:20;;;;;;;5.27;2.40;;;;;;;17.17;98.27;99804.66;3590394;40;20506;-57
2021/07/31 07:06:49;;;;;;;10.57;3.10;;;;;;;17.14;97.88;99817.72;3586678;39;21302;-54
2021/07/31 07:09:17;;;;;;;8.53;2.67;;;;;;;17.17;97.64;99803.81;3591674;40;20517;-57
2021/07/31 07:11:44;;;;;;;9.17;4.20;;;;;;;17.27;97.86;99789.88;3590383;39;20720;-53
2021/07/31 07:14:12;;;;;;;6.90;2.30;;;;;;;17.40;97.56;99802.03;3591418;40;20510;-54
2021/07/31 07:16:40;;;;;;;4.60;1.70;;;;;;;17.26;97.72;99809.00;3589346;39;20718;-54
2021/07/31 07:19:08;;;;;;;3.70;1.77;;;;;;;17.03;97.43;99801.19;3590699;40;20522;-55
2021/07/31 07:21:35;;;;;;;18.93;2.53;;;;;;;17.07;98.17;99795.97;3590989;39;20529;-52
2021/07/31 07:24:05;;;;;;;4.97;2.37;;;;;;;17.21;98.27;99795.97;3591206;40;20521;-58
2021/07/31 07:26:32;;;;;;;6.17;2.13;;;;;;;17.29;97.50;99803.81;3590789;39;20512;-54
2021/07/31 07:29:00;;;;;;;9.43;3.00;;;;;;;17.33;97.08;99794.25;3590803;40;20564;-56
2021/07/31 07:31:27;;;;;;;4.93;2.27;;;;;;;17.30;97.23;99805.53;3590951;40;20497;-56
2021/07/31 07:33:56;;;;;;;5.33;2.27;;;;;;;17.50;96.94;99810.72;3589261;40;20488;-56
2021/07/31 07:36:24;;;;;;;6.50;3.37;;;;;;;17.55;97.10;99797.66;3590756;40;20523;-58
2021/07/31 07:38:51;;;;;;;7.67;2.47;;;;;;;17.39;96.83;99796.84;3590590;39;20447;-55
2021/07/31 07:41:20;;;;;;;6.63;2.77;;;;;;;17.40;96.04;99791.59;3591108;40;20826;-53
2021/07/31 07:43:48;;;;;;;7.73;2.83;;;;;;;17.29;97.52;99793.38;3582776;39;20482;-58
2021/07/31 07:46:17;;;;;;;10.27;2.53;;;;;;;17.50;97.11;99788.97;3589506;40;20499;-58
2021/07/31 07:48:46;;;;;;;7.37;2.80;;;;;;;17.35;96.54;99798.59;3589190;39;20482;-57
2021/07/31 07:51:14;;;;;;;12.60;2.90;;;;;;;17.39;97.01;99796.84;3590750;40;20510;-55
2021/07/31 07:53:42;;;;;;;7.13;2.90;;;;;;;17.50;96.73;99795.09;3587311;39;20492;-56
2021/07/31 07:56:09;;;;;;;7.27;2.67;;;;;;;17.60;95.68;99784.63;3590711;40;20495;-57
2021/07/31 07:58:38;;;;;;;6.00;3.50;;;;;;;17.73;96.17;99782.84;3589167;39;20548;-57
2021/07/31 08:01:09;;;;;;;6.87;2.00;;;;;;;17.88;95.33;99798.44;3588576;40;20502;-54
2021/07/31 08:03:37;;;;;;;11.00;3.57;;;;;;;18.35;92.96;99782.56;3578450;39;20500;-56
2021/07/31 08:06:05;;;;;;;19.57;8.23;;;;;;;18.06;92.30;99776.63;3580421;40;20515;-53
2021/07/31 08:08:32;;;;;;;24.47;6.67;;;;;;;17.81;92.78;99784.53;3579427;40;20469;-57
2021/07/31 08:11:00;;;;;;;16.17;3.87;;;;;;;17.81;94.23;99781.91;3580681;40;20522;-54
2021/07/31 08:13:28;;;;;;;10.43;4.93;;;;;;;17.57;95.56;99777.66;3580615;40;20465;-57
2021/07/31 08:15:57;;;;;;;12.47;6.37;;;;;;;17.44;96.52;99781.19;3570179;40;20508;-56
2021/07/31 08:18:24;;;;;;;20.67;9.63;;;;;;;17.30;98.09;99786.41;3574028;40;20476;-57
2021/07/31 08:20:52;;;;;;;10.90;4.63;;;;;;;17.45;98.02;99788.13;3559693;40;20506;-57
2021/07/31 08:23:20;;;;;;;15.33;7.00;;;;;;;17.62;97.70;99786.34;3568004;40;20474;-56
2021/07/31 08:25:48;;;;;;;7.20;3.50;;;;;;;17.67;97.10;99795.03;3569366;40;20691;-51
2021/07/31 08:28:15;;;;;;;16.00;9.23;;;;;;;17.56;98.13;99786.38;3573376;40;20487;-58
2021/07/31 08:30:43;;;;;;;14.97;7.53;;;;;;;17.66;98.40;99782.88;3560932;40;20533;-51
2021/07/31 08:33:12;;;;;;;10.43;5.83;;;;;;;17.61;97.83;99791.56;3576663;40;20475;-53
2021/07/31 08:35:39;;;;;;;17.33;8.77;;;;;;;17.62;98.58;99798.50;3574543;40;20500;-55
2021/07/31 08:38:07;;;;;;;6.10;2.77;;;;;;;17.44;100.00;99786.38;3572464;40;20460;-54
2021/07/31 08:40:35;;;;;;;14.20;5.87;;;;;;;17.35;99.79;99788.16;3580348;40;20519;-57
2021/07/31 08:43:02;;;;;;;23.93;11.20;;;;;;;17.39;100.00;99783.81;3571865;40;20499;-54
2021/07/31 08:45:30;;;;;;;17.73;9.10;;;;;;;17.47;100.00;99804.63;3579021;40;20498;-56
2021/07/31 08:47:59;;;;;;;26.47;11.93;;;;;;;17.53;99.93;99799.41;3578643;39;20456;-52
2021/07/31 08:50:28;;;;;;;8.40;4.23;;;;;;;17.51;100.00;99811.56;3580501;40;20513;-54
2021/07/31 08:52:56;;;;;;;8.87;5.07;;;;;;;17.40;100.00;99804.63;3566673;40;20499;-57
2021/07/31 08:55:24;;;;;;;20.73;7.63;;;;;;;17.39;100.00;99807.25;3553019;40;20903;-52
2021/07/31 08:57:52;;;;;;;17.60;8.30;;;;;;;17.50;100.00;99805.50;3565782;40;20456;-54
2021/07/31 09:00:19;;;;;;;10.50;4.70;;;;;;;17.65;99.87;99803.72;3565521;40;20595;-57
2021/07/31 09:02:48;;;;;;;7.83;3.37;;;;;;;17.78;100.00;99807.16;3563944;40;20467;-54
2021/07/31 09:05:31;;;;;;;15.93;5.60;;;;;;;17.60;99.05;99814.19;3560592;40;20522;-55
2021/07/31 09:08:02;;;;;;;20.43;6.30;;;;;;;17.75;99.04;99796.75;3559780;40;20488;-56
2021/07/31 09:10:31;;;;;;;7.13;3.63;;;;;;;17.73;99.04;99807.19;3575861;40;20505;-57
2021/07/31 09:13:00;;;;;;;7.47;3.53;;;;;;;17.74;97.41;99787.19;3589083;39;20473;-57
2021/07/31 09:15:33;;;;;;;7.33;3.60;;;;;;;17.75;96.15;99783.69;3590079;40;20710;-54
2021/07/31 09:18:24;;;;;;;12.23;5.40;;;;;;;17.57;97.70;99789.84;3581330;40;20493;-55
2021/07/31 09:20:58;;;;;;;15.77;4.63;;;;;;;17.51;97.90;99798.53;3587618;40;20521;-55
2021/07/31 09:23:35;;;;;;;10.70;3.80;;;;;;;17.69;98.39;99787.19;3590285;39;20479;-54
2021/07/31 09:26:03;;;;;;;16.53;5.00;;;;;;;17.74;98.05;99795.00;3553548;40;20506;-55
2021/07/31 09:28:31;;;;;;;18.47;6.63;;;;;;;17.94;97.51;99787.09;3568351;40;20477;-53
2021/07/31 09:30:59;;;;;;;9.00;3.67;;;;;;;18.15;96.37;99780.94;3571086;40;20548;-54
2021/07/31 09:33:27;;;;;;;7.20;3.37;;;;;;;18.22;95.87;99782.63;3589590;39;20593;-60
2021/07/31 09:36:04;;;;;;;10.50;4.50;;;;;;;18.00;94.65;99781.00;3591759;40;20499;-55
2021/07/31 09:38:41;;;;;;;5.80;3.00;;;;;;;18.07;95.97;99775.78;3587249;39;20484;-53
2021/07/31 09:41:29;;;;;;;10.10;4.00;;;;;;;18.12;95.17;99780.97;3580087;40;20547;-58
2021/07/31 09:44:04;;;;;;;10.23;4.07;;;;;;;18.08;94.03;99774.91;3581130;40;20454;-59
2021/07/31 09:46:33;;;;;;;10.93;4.73;;;;;;;18.05;94.00;99774.03;3563505;40;20494;-59
2021/07/31 09:49:01;;;;;;;5.40;3.00;;;;;;;18.00;95.11;99781.00;3581159;40;20488;-56
2021/07/31 09:51:35;;;;;;;20.43;3.07;;;;;;;17.89;95.30;99779.28;3580251;39;20528;-56
2021/07/31 09:54:06;;;;;;;20.13;7.07;;;;;;;17.82;95.63;99764.53;3570704;40;20522;-56
2021/07/31 09:56:38;;;;;;;5.30;2.30;;;;;;;18.06;95.46;99758.38;3571053;40;20516;-55
2021/07/31 09:59:07;;;;;;;6.10;3.17;;;;;;;18.33;94.75;99768.66;3570750;40;20523;-58
2021/07/31 10:01:36;;;;;;;7.27;3.00;;;;;;;18.51;93.52;99764.22;3566585;40;20858;-58
2021/07/31 10:04:05;;;;;;;19.37;7.07;;;;;;;18.29;92.71;99753.91;3569274;40;20511;-56
2021/07/31 10:06:34;;;;;;;12.10;5.60;;;;;;;18.22;93.19;99761.75;3567204;39;20538;-57
2021/07/31 10:09:03;;;;;;;8.43;3.10;;;;;;;18.15;94.55;99764.44;3596025;39;20554;-58
2021/07/31 10:11:33;;;;;;;7.83;3.60;;;;;;;18.13;93.62;99766.16;3578758;39;20683;-56
2021/07/31 10:14:01;;;;;;;9.60;4.27;;;;;;;18.20;93.14;99757.44;3580240;40;20504;-58
2021/07/31 10:16:30;;;;;;;9.10;3.27;;;;;;;18.73;90.73;99747.50;3581306;39;20514;-56
2021/07/31 10:19:03;;;;;;;10.57;3.97;;;;;;;18.97;89.91;99748.16;3591042;40;20530;-55
2021/07/31 10:21:32;;;;;;;7.13;3.60;;;;;;;18.66;90.60;99755.41;3587328;39;20499;-56
2021/07/31 10:24:02;;;;;;;26.80;8.33;;;;;;;18.35;92.40;99748.63;3590990;40;20516;-54
2021/07/31 10:26:31;;;;;;;10.17;3.30;;;;;;;18.38;94.51;99748.63;3589471;39;20508;-56
2021/07/31 10:29:36;;;;;;;14.13;4.50;;;;;;;18.17;94.57;99752.22;3572694;40;20865;-57
2021/07/31 10:32:43;;;;;;;8.80;3.83;;;;;;;18.25;95.02;99757.41;3589066;39;20484;-58
2021/07/31 10:35:38;;;;;;;7.60;3.87;;;;;;;18.27;94.85;99747.81;3591270;40;20485;-58
2021/07/31 10:38:07;;;;;;;5.87;2.70;;;;;;;18.25;94.94;99749.59;3547386;40;20745;-56
2021/07/31 10:40:47;;;;;;;5.83;2.73;;;;;;;18.31;95.98;99744.34;3549169;40;20520;-58
2021/07/31 10:43:15;;;;;;;5.90;3.63;;;;;;;18.40;95.07;99739.03;3548941;40;20545;-58
2021/07/31 10:45:43;;;;;;;11.23;3.50;;;;;;;18.39;94.37;99734.69;3549491;40;20626;-58
2021/07/31 10:48:35;;;;;;;8.70;3.47;;;;;;;18.69;93.23;99730.13;3571369;40;20490;-52
2021/07/31 10:51:03;;;;;;;9.03;3.10;;;;;;;18.56;91.79;99733.72;3589152;40;20501;-54
2021/07/31 10:53:52;;;;;;;5.53;2.40;;;;;;;18.53;90.22;99724.16;3587045;40;20497;-53
2021/07/31 10:56:21;;;;;;;5.13;2.13;;;;;;;18.60;90.84;99738.00;3582932;40;20502;-53
2021/07/31 10:59:17;;;;;;;17.57;5.03;;;;;;;18.82;90.12;99719.56;3582988;40;20467;-57
2021/07/31 11:01:45;;;;;;;6.13;1.63;;;;;;;19.22;88.08;99745.34;3577389;40;20526;-56
2021/07/31 11:04:51;;;;;;;6.20;2.50;;;;;;;18.83;90.79;99723.91;3581150;40;20502;-57
2021/07/31 11:07:18;;;;;;;5.70;2.40;;;;;;;18.63;91.50;99722.34;3582410;39;20483;-58
2021/07/31 11:10:19;;;;;;;5.70;2.40;;;;;;;18.74;91.80;99717.91;3571270;40;20511;-58
2021/07/31 11:12:48;;;;;;;6.33;2.40;;;;;;;18.89;91.72;99727.34;3564248;40;20507;-56
2021/07/31 11:15:19;;;;;;;8.87;3.47;;;;;;;19.05;91.54;99723.72;3561298;40;20515;-54
2021/07/31 11:17:55;;;;;;;7.13;2.13;;;;;;;18.82;91.82;99724.81;3559046;40;20548;-54
2021/07/31 11:20:27;;;;;;;3.50;1.80;;;;;;;18.83;91.54;99716.97;3560193;40;20527;-54
2021/07/31 11:22:55;;;;;;;5.67;2.60;;;;;;;18.79;92.20;99709.13;3563835;40;20540;-53
2021/07/31 11:25:24;;;;;;;7.03;2.67;;;;;;;18.97;92.33;99713.34;3564257;40;20510;-57
2021/07/31 11:27:58;;;;;;;4.60;2.20;;;;;;;18.90;92.68;99722.97;3568974;40;20459;-56
2021/07/31 11:30:43;;;;;;;5.57;2.17;;;;;;;18.85;91.77;99722.16;3571109;40;20529;-55
2021/07/31 11:33:16;;;;;;;27.87;8.00;;;;;;;18.86;92.05;99721.25;3567953;40;20499;-56
2021/07/31 11:35:44;;;;;;;13.93;3.57;;;;;;;18.91;92.54;99709.03;3570841;40;20510;-55